Somers, IA (50586)

9:40 PM CDT on July 28, 2014 (GMT -0500)
Lohrville NE (KIALOHRV5) Elev 1170 ft | 42.28 °N, 94.49 °W | Change Station

Current weather conditions updated 10 seconds ago

Clear
Clear
65.5 °F
Feels Like 65.5 °F
N
2.2
Wind Variable Wind from NNW
Gusts 2.2 mph

Tomorrow is forecast to be nearly the same temperature as today.

Today
High -- | Low -- °F
--% Chance of Precip.
Yesterday
High -- | Low -- °F
Precip. -- in
6:06 AM 8:41 PM
Waxing Crescent, 4% visible
Pressure 30.18 in
Visibility 10.0 miles
Clouds Clear
Dew Point 58 °F
Humidity 76%
Rainfall 0.00 in
Snow Depth Not available.
UV 0 out of 12
Pollen 6.50 out of 12
Air Quality Not available.
Flu Activity Not available.
METAR KFOD 290215Z AUTO 00000KT 10SM CLR 17/13 A3018 RMK AO1

More Conditions Fewer Conditions

Pressure 30.18 in
Visibility 10.0 miles
Clouds Clear
Dew Point 58 °F
Humidity 76%
Rainfall 0.00 in
Snow Depth Not available.
UV 0 out of 12
Pollen 6.50 out of 12
Air Quality Not available.
Flu Activity Not available.
METAR KFOD 290215Z AUTO 00000KT 10SM CLR 17/13 A3018 RMK AO1

More Conditions Fewer Conditions

10-Day Weather Forecast

Almanac

Astronomy

Jul. 28, 2014 Rise Set
Actual Time 6:06 AM CDT 8:41 PM CDT
Civil Twilight 5:33 AM CDT 9:13 PM CDT
Nautical Twilight 4:53 AM CDT 9:53 PM CDT
Astronomical Twilight 4:07 AM CDT 10:39 PM CDT
Moon 7:51 AM CDT (7/28) 9:19 PM CDT (7/28)
Length of Visible Light 15h 39m
Length of Day
14h 35m
Tomorrow will be 2m 4s shorter.
Waxing Crescent, 4% of the Moon is Illuminated
Today
Waxing Crescent
Aug 3
First Quarter
Aug 10
Full
Aug 17
Last Quarter
Aug 25
New

Today's Extremes

State Highs State Lows

Community

WunderPhotos

Upload Photos

1,738,587 photos uploaded!

Nearby

Snow Depth

Station Depth Elevation
No new snow has been reported.

Earthquake Activity

City Distance Mag. Time & Date
No recent earthquake activity has been reported nearby.
Minimum magnitude displayed is 2.5.

Coastal Water Temperatures

Place Temperature
No Stations Reporting

Nearby Weather Stations

Station Location Temp. Dew Point Humidity Wind Precip. Elev Updated Type
Lohrville NE, Lohrville, IA 65.5 °F 58 °F 76% NNW  at  2.2 mph 0.00 in / hr 1170 ft 9:40 PM CDT Rapid Fire
Lohrville, IA 63.3 °F 59 °F 87% NE  at  0.0 mph - / hr 1150 ft 9:37 PM CDT Normal
Duncombe School area, Fort Dodge, IA 64.2 °F 57 °F 77% SW  at  0.0 mph 0.00 in / hr 1109 ft 9:40 PM CDT Rapid Fire
Midwest, Lake City, IA 66.3 °F 60 °F 80% North  at  0.0 mph 0.00 in / hr 1201 ft 9:31 PM CDT Normal
Badger IA, Badger, IA 63.7 °F 57 °F 80% NNW  at  2.0 mph 0.00 in / hr 1142 ft 9:39 PM CDT Normal
NW of Badger by DSM River, Badger, IA 61.5 °F 56 °F 83% NNE  at  0.0 mph 0.00 in / hr 1125 ft 9:40 PM CDT Rapid Fire

Show More Stations Show Fewer Stations